Time;durP1;ratioP1;P1;durP2;ratioP2;P2;SDS_P1;SDS_P2;PMS_P1;PMS_P2;Temp;Humidity;BMP_temperature;BMP_pressure;BME280_temperature;BME280_humidity;BME280_pressure;Samples;Min_cycle;Max_cycle;Signal;HPM_P1;HPM_P2
2021/12/18 00:00:52;;;;;;;12.50;6.65;;;;;;;0.06;100.00;62002.63;6228597;23;20173;-80
2021/12/18 00:03:19;;;;;;;6.95;5.65;;;;;;;0.12;100.00;62013.25;6233872;23;20263;-80
2021/12/18 00:05:46;;;;;;;10.20;6.88;;;;;;;0.01;100.00;62000.00;6233051;23;20182;-80
2021/12/18 00:08:14;;;;;;;8.45;6.43;;;;;;;0.02;100.00;62003.53;6231587;23;20223;-79
2021/12/18 00:10:42;;;;;;;10.27;6.53;;;;;;;0.03;100.00;62005.06;6230655;23;20169;-80
2021/12/18 00:13:09;;;;;;;12.13;7.28;;;;;;;0.06;100.00;61999.59;6230721;23;20193;-81
2021/12/18 00:15:36;;;;;;;11.43;6.30;;;;;;;-0.16;100.00;61983.09;6231400;23;20170;-80
2021/12/18 00:18:03;;;;;;;12.27;6.70;;;;;;;0.01;100.00;62005.00;6230340;23;20506;-80
2021/12/18 00:20:30;;;;;;;7.65;5.85;;;;;;;0.00;100.00;62001.47;6230701;23;20174;-80
2021/12/18 00:22:59;;;;;;;11.88;7.50;;;;;;;-0.12;100.00;61987.19;6229624;23;20268;-80
2021/12/18 00:25:28;;;;;;;12.15;7.63;;;;;;;-0.01;100.00;61997.94;6231169;23;20389;-80
2021/12/18 00:27:55;;;;;;;9.10;6.55;;;;;;;0.01;100.00;62000.00;6229712;23;20205;-80
2021/12/18 00:30:22;;;;;;;12.68;7.30;;;;;;;0.06;100.00;62004.59;6229811;23;20181;-80
2021/12/18 00:32:49;;;;;;;12.80;6.85;;;;;;;0.07;100.00;62010.66;6229912;23;20239;-82
2021/12/18 00:35:17;;;;;;;12.48;7.60;;;;;;;0.13;100.00;62011.78;6230585;23;20197;-79
2021/12/18 00:37:44;;;;;;;8.38;6.90;;;;;;;0.16;100.00;62017.34;6229490;23;20201;-80
2021/12/18 00:40:20;;;;;;;11.77;7.22;;;;;;;0.01;100.00;62002.50;6231203;23;20174;-80
2021/12/18 00:42:56;;;;;;;13.38;7.28;;;;;;;-0.04;100.00;61997.38;6228025;23;20296;-82
2021/12/18 00:45:23;;;;;;;11.32;7.03;;;;;;;0.13;100.00;62014.28;6228804;23;20168;-80
2021/12/18 00:47:49;;;;;;;9.63;7.18;;;;;;;0.08;100.00;62011.66;6230059;23;20189;-80
2021/12/18 00:50:20;;;;;;;10.30;6.72;;;;;;;0.12;100.00;62018.78;6229735;23;20389;-80
2021/12/18 00:52:47;;;;;;;6.68;5.68;;;;;;;0.03;100.00;62001.53;6229015;23;20236;-79
2021/12/18 00:55:15;;;;;;;11.23;7.25;;;;;;;0.12;100.00;62010.75;6229480;23;20226;-80
2021/12/18 00:57:44;;;;;;;7.72;5.75;;;;;;;0.15;100.00;62013.84;6230045;23;20205;-80
2021/12/18 01:00:15;;;;;;;11.68;6.45;;;;;;;0.14;100.00;62015.31;6228946;23;20174;-80
2021/12/18 01:02:44;;;;;;;9.80;6.03;;;;;;;-0.03;100.00;61998.91;6229072;23;20209;-80
2021/12/18 01:05:11;;;;;;;9.70;6.18;;;;;;;0.22;100.00;62021.00;6228971;23;20229;-79
2021/12/18 01:07:39;;;;;;;8.10;5.88;;;;;;;0.28;100.00;62027.66;6229174;23;20201;-79
2021/12/18 01:10:20;;;;;;;11.02;6.75;;;;;;;0.17;100.00;62018.38;6229382;23;20162;-80
2021/12/18 01:12:49;;;;;;;9.77;6.30;;;;;;;0.24;100.00;62023.06;6229233;23;20196;-80
2021/12/18 01:15:23;;;;;;;9.27;5.47;;;;;;;0.17;100.00;62018.91;6230068;23;20232;-81
2021/12/18 01:23:22;;;;;;;9.90;5.53;;;;;;;0.12;100.00;62016.28;6231025;23;20211;-81
2021/12/18 01:25:49;;;;;;;7.00;5.07;;;;;;;0.06;100.00;62002.63;6230324;23;20173;-80
2021/12/18 01:28:16;;;;;;;7.22;5.68;;;;;;;-0.05;100.00;61998.84;6228708;23;20422;-79
2021/12/18 01:30:45;;;;;;;8.95;5.65;;;;;;;0.06;100.00;62007.09;6229943;23;20443;-80
2021/12/18 01:33:12;;;;;;;14.20;6.55;;;;;;;-0.02;100.00;61997.44;6228580;23;20193;-79
2021/12/18 01:35:39;;;;;;;9.10;6.38;;;;;;;0.08;100.00;62007.16;6228536;23;20173;-80
2021/12/18 01:38:06;;;;;;;10.70;6.32;;;;;;;0.06;100.00;62007.09;6228861;23;20337;-80
2021/12/18 01:40:33;;;;;;;8.93;5.65;;;;;;;0.05;100.00;62009.09;6234081;23;20375;-81
2021/12/18 01:46:08;;;;;;;9.77;5.53;;;;;;;0.04;100.00;62008.06;6227720;23;20180;-80
2021/12/18 01:51:23;;;;;;;6.28;5.60;;;;;;;0.05;100.00;62011.09;6227255;23;20200;-81
2021/12/18 01:53:53;;;;;;;7.95;5.78;;;;;;;0.04;100.00;62008.06;6228371;23;20248;-81
2021/12/18 01:56:20;;;;;;;7.80;5.85;;;;;;;0.06;100.00;62005.13;6228749;23;20216;-81
2021/12/18 01:58:47;;;;;;;8.20;5.25;;;;;;;0.06;100.00;62007.09;6228138;23;20517;-79
2021/12/18 02:01:17;;;;;;;10.27;4.90;;;;;;;-0.03;100.00;61998.91;6228566;23;20180;-79
2021/12/18 02:03:45;;;;;;;9.60;6.20;;;;;;;-0.09;100.00;61992.75;6228914;23;20438;-81
2021/12/18 02:06:12;;;;;;;8.23;5.25;;;;;;;-0.09;100.00;61992.75;6230530;23;20179;-81
2021/12/18 02:08:43;;;;;;;12.02;6.28;;;;;;;-0.09;100.00;61987.75;6229523;23;20212;-80
2021/12/18 02:11:15;;;;;;;11.32;6.60;;;;;;;-0.03;100.00;61996.41;6230165;23;20169;-80
2021/12/18 02:19:51;;;;;;;9.32;6.65;;;;;;;-0.03;100.00;61998.41;6229026;23;20200;-80
2021/12/18 02:22:21;;;;;;;13.23;6.80;;;;;;;0.05;100.00;62003.59;6228490;23;20201;-81
2021/12/18 02:24:48;;;;;;;8.63;5.43;;;;;;;0.03;100.00;62004.03;6230104;23;20202;-80
2021/12/18 02:27:15;;;;;;;10.88;6.50;;;;;;;0.11;100.00;62014.72;6230407;23;20173;-80
2021/12/18 02:29:43;;;;;;;10.55;5.88;;;;;;;0.05;100.00;62009.09;6228983;23;20177;-81
2021/12/18 02:32:12;;;;;;;9.85;6.45;;;;;;;0.07;100.00;62013.66;6228888;23;20505;-80
2021/12/18 02:34:41;;;;;;;7.72;6.00;;;;;;;0.11;100.00;62010.25;6228111;23;20215;-81
2021/12/18 02:37:11;;;;;;;9.90;6.78;;;;;;;0.07;100.00;62008.13;6228339;23;20177;-81
2021/12/18 02:39:58;;;;;;;8.43;6.15;;;;;;;-0.19;100.00;61980.00;6230633;23;20193;-79
2021/12/18 02:42:25;;;;;;;11.40;5.93;;;;;;;0.01;100.00;62005.00;6231354;23;20162;-81
2021/12/18 02:44:52;;;;;;;9.18;5.45;;;;;;;-0.27;100.00;61973.81;6229833;23;20509;-80
2021/12/18 02:47:20;;;;;;;11.27;5.93;;;;;;;-0.15;100.00;61984.13;6228792;23;20184;-80
2021/12/18 02:49:50;;;;;;;7.10;5.88;;;;;;;-0.08;100.00;61996.28;6228360;23;20169;-81
2021/12/18 02:52:17;;;;;;;6.65;4.75;;;;;;;-0.11;100.00;61988.22;6229423;23;20172;-81
2021/12/18 02:54:46;;;;;;;7.75;6.10;;;;;;;-0.12;100.00;61987.19;6227853;23;20182;-80
2021/12/18 02:57:14;;;;;;;9.57;5.90;;;;;;;-0.09;100.00;61989.75;6228256;23;20169;-81
2021/12/18 02:59:44;;;;;;;9.32;6.53;;;;;;;-0.01;100.00;62000.44;6228806;23;20200;-79
2021/12/18 03:02:13;;;;;;;9.93;5.82;;;;;;;-0.02;100.00;61996.94;6229212;23;20180;-81
2021/12/18 03:04:42;;;;;;;11.35;6.40;;;;;;;-0.09;100.00;61989.75;6227196;23;20216;-80
2021/12/18 03:07:11;;;;;;;7.03;5.28;;;;;;;-0.07;100.00;61994.31;6227480;23;20169;-80
2021/12/18 03:23:40;;;;;;;9.13;6.60;;;;;;;-0.28;100.00;61972.78;6228562;23;20208;-81
2021/12/18 03:26:07;;;;;;;12.32;6.30;;;;;;;-0.31;100.00;61967.72;6229208;23;20232;-80
2021/12/18 03:28:35;;;;;;;11.27;6.88;;;;;;;-0.39;100.00;61961.50;6229476;23;20194;-81
2021/12/18 03:31:02;;;;;;;10.35;5.90;;;;;;;-0.41;100.00;61957.47;6227865;23;20501;-81
2021/12/18 03:33:29;;;;;;;10.43;6.78;;;;;;;-0.40;100.00;61955.50;6228615;23;20193;-81
2021/12/18 03:35:57;;;;;;;13.27;7.43;;;;;;;-0.44;100.00;61959.41;6230878;23;20229;-80
2021/12/18 03:38:25;;;;;;;10.18;7.13;;;;;;;-0.41;100.00;61957.47;6230349;23;20209;-80
2021/12/18 03:40:53;;;;;;;9.88;6.03;;;;;;;-0.41;100.00;61959.97;6231983;23;20229;-78
2021/12/18 03:43:20;;;;;;;9.88;6.93;;;;;;;-0.40;100.00;61963.50;6230374;23;20205;-80
2021/12/18 03:45:49;;;;;;;11.50;7.25;;;;;;;-0.67;100.00;61928.34;6230326;23;20197;-81
2021/12/18 03:48:17;;;;;;;12.38;7.50;;;;;;;-0.40;100.00;61960.50;6231721;23;20208;-81
2021/12/18 03:50:46;;;;;;;17.15;8.27;;;;;;;-0.43;100.00;61957.44;6232251;23;20173;-81
2021/12/18 03:53:13;;;;;;;23.85;10.60;;;;;;;-0.47;100.00;61951.34;6230949;23;20205;-81
2021/12/18 03:55:40;;;;;;;18.67;10.05;;;;;;;-0.50;100.00;61950.75;6229786;23;20165;-81
2021/12/18 03:58:07;;;;;;;12.20;7.45;;;;;;;-0.58;100.00;61944.56;6228088;23;20193;-80
2021/12/18 04:00:33;;;;;;;9.75;6.65;;;;;;;-0.58;100.00;61942.06;6229579;23;20389;-81
2021/12/18 04:03:02;;;;;;;11.80;6.97;;;;;;;-0.59;100.00;61946.03;6228262;23;20224;-80
2021/12/18 04:05:28;;;;;;;8.40;6.30;;;;;;;-0.66;100.00;61933.88;6228341;23;20166;-80
2021/12/18 04:08:08;;;;;;;8.52;5.82;;;;;;;-0.73;100.00;61924.19;6230246;23;20189;-81
2021/12/18 04:10:37;;;;;;;11.38;6.00;;;;;;;-0.73;100.00;61927.22;6230675;23;20165;-80
2021/12/18 04:13:05;;;;;;;8.30;6.05;;;;;;;-0.73;100.00;61929.72;6230364;23;20190;-80
2021/12/18 04:15:32;;;;;;;10.50;6.22;;;;;;;-0.72;100.00;61928.22;6230070;23;20173;-79
2021/12/18 04:17:59;;;;;;;10.82;7.97;;;;;;;-0.71;100.00;61929.25;6232214;23;20245;-79
2021/12/18 04:20:27;;;;;;;14.95;6.75;;;;;;;-0.68;100.00;61931.81;6230429;23;20173;-79
2021/12/18 04:22:55;;;;;;;13.15;6.18;;;;;;;-0.66;100.00;61929.38;6230578;23;20197;-81
2021/12/18 04:25:22;;;;;;;9.45;6.47;;;;;;;-0.48;100.00;61952.28;6229398;23;20428;-81
2021/12/18 04:27:50;;;;;;;11.38;6.78;;;;;;;-0.40;100.00;61958.50;6230188;23;20200;-81
2021/12/18 04:30:16;;;;;;;11.75;5.97;;;;;;;-0.45;100.00;61955.38;6230122;23;20209;-79
2021/12/18 04:32:43;;;;;;;8.45;5.88;;;;;;;-0.36;100.00;61965.09;6230747;23;20200;-80
2021/12/18 04:35:11;;;;;;;8.90;5.28;;;;;;;-0.22;100.00;61978.94;6230286;23;20193;-80
2021/12/18 04:37:39;;;;;;;6.00;4.90;;;;;;;-0.43;100.00;61955.44;6235214;23;20208;-80
2021/12/18 04:40:07;;;;;;;5.90;4.70;;;;;;;-0.42;100.00;61958.44;6232198;23;20169;-80
2021/12/18 04:42:34;;;;;;;8.60;5.72;;;;;;;-0.42;100.00;61960.94;6229817;23;20212;-80
2021/12/18 04:45:01;;;;;;;5.93;4.60;;;;;;;-0.35;100.00;61960.63;6230506;23;20256;-80
2021/12/18 04:47:28;;;;;;;7.00;4.80;;;;;;;-0.37;100.00;61963.56;6229188;23;20402;-81
2021/12/18 04:49:55;;;;;;;7.38;5.00;;;;;;;-0.38;100.00;61960.53;6231043;23;20170;-81
2021/12/18 04:52:23;;;;;;;8.60;5.00;;;;;;;-0.35;100.00;61963.63;6229414;23;20209;-80
2021/12/18 04:54:51;;;;;;;11.32;4.95;;;;;;;-0.27;100.00;61973.81;6229828;23;20177;-81
2021/12/18 04:57:18;;;;;;;6.05;4.63;;;;;;;-0.36;100.00;61959.59;6230174;23;20169;-81
2021/12/18 04:59:45;;;;;;;6.80;5.28;;;;;;;-0.37;100.00;61963.56;6231098;23;20223;-79
2021/12/18 05:02:16;;;;;;;9.43;5.43;;;;;;;-0.49;100.00;61949.28;6231890;23;20178;-80
2021/12/18 05:04:45;;;;;;;6.20;4.78;;;;;;;-0.44;100.00;61951.91;6231531;23;20193;-80
2021/12/18 05:07:12;;;;;;;4.70;4.20;;;;;;;-0.35;100.00;61968.13;6231523;23;20170;-81
2021/12/18 05:09:40;;;;;;;7.20;5.35;;;;;;;-0.34;100.00;61967.16;6231369;23;20202;-81
2021/12/18 05:12:09;;;;;;;4.35;3.58;;;;;;;-0.29;100.00;61972.28;6231125;23;20170;-82
2021/12/18 05:14:37;;;;;;;4.38;3.97;;;;;;;-0.32;100.00;61969.19;6234744;23;20344;-80
2021/12/18 05:17:04;;;;;;;6.78;4.88;;;;;;;-0.36;100.00;61962.09;6233970;23;20188;-80
2021/12/18 05:19:31;;;;;;;5.93;4.50;;;;;;;-0.38;100.00;61960.06;6230460;23;20211;-79
2021/12/18 05:21:58;;;;;;;7.60;4.68;;;;;;;-0.26;100.00;61972.84;6230518;23;20174;-80
2021/12/18 05:24:25;;;;;;;5.97;4.63;;;;;;;-0.29;100.00;61971.75;6230513;23;20208;-80
2021/12/18 05:26:52;;;;;;;7.70;5.40;;;;;;;-0.35;100.00;61963.13;6230956;23;20176;-79
2021/12/18 05:29:20;;;;;;;6.40;5.00;;;;;;;-0.24;100.00;61979.38;6230354;23;20489;-80
2021/12/18 05:31:47;;;;;;;8.50;4.78;;;;;;;-0.47;100.00;61953.31;6229653;23;20184;-80
2021/12/18 05:34:21;;;;;;;10.68;4.60;;;;;;;-0.32;100.00;61969.19;6230552;23;20241;-80
2021/12/18 05:39:33;;;;;;;5.22;4.43;;;;;;;-0.29;100.00;61969.25;6228867;23;20532;-81
2021/12/18 05:41:59;;;;;;;6.45;4.22;;;;;;;-0.26;100.00;61974.84;6229661;23;20181;-80
2021/12/18 05:44:28;;;;;;;6.13;4.97;;;;;;;-0.25;100.00;61973.88;6229489;23;20205;-80
2021/12/18 05:46:56;;;;;;;5.78;4.60;;;;;;;-0.29;100.00;61969.25;6229423;23;20181;-79
2021/12/18 05:49:23;;;;;;;7.03;5.18;;;;;;;-0.30;100.00;61965.72;6229065;23;20235;-81
2021/12/18 05:51:51;;;;;;;5.68;4.60;;;;;;;-0.33;100.00;61965.66;6229641;23;20166;-80
2021/12/18 05:54:18;;;;;;;7.80;5.28;;;;;;;-0.34;100.00;61961.63;6230562;23;20205;-80
2021/12/18 05:56:45;;;;;;;6.63;4.53;;;;;;;-0.36;100.00;61962.59;6230512;23;20173;-82
2021/12/18 05:59:12;;;;;;;8.10;4.95;;;;;;;-0.28;100.00;61975.81;6231086;23;20201;-80
2021/12/18 06:01:41;;;;;;;37.13;20.13;;;;;;;-0.23;100.00;61977.91;6230952;23;20344;-80
2021/12/18 06:04:09;;;;;;;10.40;5.18;;;;;;;-0.31;100.00;61972.22;6230814;23;20223;-79
2021/12/18 06:06:36;;;;;;;5.22;4.40;;;;;;;-0.38;100.00;61960.53;6231133;23;20173;-80
2021/12/18 06:09:03;;;;;;;5.55;4.50;;;;;;;-0.40;100.00;61961.00;6230844;23;20263;-81
2021/12/18 06:11:32;;;;;;;7.55;5.00;;;;;;;-0.31;100.00;61972.22;6231813;23;20169;-80
2021/12/18 06:13:59;;;;;;;8.63;5.22;;;;;;;-0.22;100.00;61974.44;6231523;23;20197;-82
2021/12/18 06:16:26;;;;;;;6.93;5.28;;;;;;;-0.35;100.00;61963.13;6232584;23;20196;-80
2021/12/18 06:18:54;;;;;;;7.68;5.25;;;;;;;-0.24;100.00;61974.38;6231299;23;20216;-79
2021/12/18 06:21:23;;;;;;;5.82;4.43;;;;;;;-0.40;100.00;61958.50;6231888;23;20166;-80
2021/12/18 06:23:52;;;;;;;6.35;5.45;;;;;;;-0.44;100.00;61954.41;6231968;23;20200;-80
2021/12/18 06:26:20;;;;;;;9.20;4.70;;;;;;;-0.33;100.00;61965.16;6231182;23;20204;-80
2021/12/18 06:28:47;;;;;;;8.00;4.88;;;;;;;-0.45;100.00;61955.88;6229556;23;20407;-79
2021/12/18 06:31:14;;;;;;;10.15;5.78;;;;;;;-0.43;100.00;61960.44;6230379;23;20478;-80
2021/12/18 06:33:43;;;;;;;9.52;4.35;;;;;;;-0.48;100.00;61950.31;6229403;23;20228;-79
2021/12/18 06:36:12;;;;;;;14.82;9.43;;;;;;;-0.52;100.00;61953.22;6229139;23;20354;-80
2021/12/18 06:38:38;;;;;;;12.93;8.55;;;;;;;-0.55;100.00;61945.13;6228695;23;20417;-80
2021/12/18 06:41:05;;;;;;;10.70;6.80;;;;;;;-0.60;100.00;61937.50;6229123;23;20397;-80
2021/12/18 06:43:32;;;;;;;7.63;5.22;;;;;;;-0.55;100.00;61943.13;6228178;23;20189;-80
2021/12/18 06:45:59;;;;;;;5.88;4.80;;;;;;;-0.57;100.00;61940.59;6229483;23;20260;-81
2021/12/18 06:48:26;;;;;;;9.02;5.30;;;;;;;-0.59;100.00;61941.03;6232781;23;20189;-80
2021/12/18 06:50:53;;;;;;;9.45;6.43;;;;;;;-0.48;100.00;61955.31;6233463;23;20204;-81
2021/12/18 06:53:23;;;;;;;8.65;5.95;;;;;;;-0.43;100.00;61962.44;6235695;23;20193;-80
2021/12/18 06:55:50;;;;;;;9.63;6.68;;;;;;;-0.67;100.00;61935.31;6229363;23;20162;-80
2021/12/18 06:58:17;;;;;;;11.30;6.38;;;;;;;-0.42;100.00;61953.97;6228647;23;20193;-81
2021/12/18 07:00:44;;;;;;;7.32;5.00;;;;;;;-0.74;100.00;61928.19;6228833;23;20166;-80
2021/12/18 07:03:12;;;;;;;27.55;15.45;;;;;;;-0.42;100.00;61955.94;6228020;23;20264;-80
2021/12/18 07:05:39;;;;;;;17.42;8.70;;;;;;;-0.58;100.00;61942.06;6228308;23;20209;-80
2021/12/18 07:08:06;;;;;;;16.45;8.27;;;;;;;-0.33;100.00;61968.16;6227026;23;20189;-80
2021/12/18 07:10:35;;;;;;;10.75;6.22;;;;;;;-0.34;100.00;61967.16;6228550;23;20169;-80
2021/12/18 07:13:02;;;;;;;10.00;6.63;;;;;;;-0.30;100.00;61968.25;6228380;23;20193;-80
2021/12/18 07:15:29;;;;;;;11.50;5.68;;;;;;;-0.25;100.00;61973.88;6228887;23;20189;-81
2021/12/18 07:17:56;;;;;;;8.40;6.20;;;;;;;-0.18;100.00;61980.53;6228179;23;20212;-79
2021/12/18 07:20:23;;;;;;;8.82;6.88;;;;;;;-0.18;100.00;61978.03;6226929;23;20726;-77
2021/12/18 07:22:50;;;;;;;10.82;6.93;;;;;;;-0.09;100.00;61989.75;6225395;23;20255;-77
2021/12/18 07:25:17;;;;;;;8.02;5.88;;;;;;;-0.07;100.00;61992.31;6227685;23;20209;-78
2021/12/18 07:27:45;;;;;;;7.10;4.97;;;;;;;0.10;100.00;62008.72;6231500;22;20190;-77
2021/12/18 07:30:15;;;;;;;10.63;5.45;;;;;;;0.10;100.00;62011.72;6235973;23;20470;-80
2021/12/18 07:32:42;;;;;;;3.88;3.33;;;;;;;0.15;100.00;62011.31;6227214;23;20427;-78
2021/12/18 07:35:10;;;;;;;11.20;5.53;;;;;;;0.22;100.00;62021.53;6227197;23;20374;-78
2021/12/18 07:37:37;;;;;;;27.45;14.88;;;;;;;0.27;100.00;62026.13;6225733;23;20194;-78
2021/12/18 07:40:06;;;;;;;8.90;5.57;;;;;;;0.34;100.00;62033.81;6231519;23;20169;-78
2021/12/18 07:42:33;;;;;;;8.95;5.20;;;;;;;0.39;100.00;62043.97;6230529;23;20173;-77
2021/12/18 07:45:01;;;;;;;8.20;5.18;;;;;;;0.58;100.00;62060.94;6229799;23;20201;-78
2021/12/18 07:47:28;;;;;;;6.75;4.40;;;;;;;0.44;100.00;62049.06;6227610;23;20177;-78
2021/12/18 07:49:55;;;;;;;6.65;4.45;;;;;;;0.25;100.00;62024.59;6228953;23;20177;-77
2021/12/18 07:52:22;;;;;;;3.42;3.05;;;;;;;0.33;100.00;62032.78;6228721;23;20378;-79
2021/12/18 07:54:50;;;;;;;2.72;2.20;;;;;;;0.34;100.00;62033.81;6229842;23;20237;-79
2021/12/18 07:57:33;;;;;;;6.55;4.18;;;;;;;0.06;100.00;62009.59;6230434;23;20166;-81
2021/12/18 08:00:01;;;;;;;3.33;3.03;;;;;;;0.29;100.00;62028.69;6234361;23;20234;-80
2021/12/18 08:02:28;;;;;;;3.78;3.45;;;;;;;0.55;100.00;62055.34;6232205;23;20425;-80
2021/12/18 08:04:55;;;;;;;3.65;2.97;;;;;;;0.68;100.00;62068.16;6231200;23;20205;-78
2021/12/18 08:07:26;;;;;;;4.32;3.83;;;;;;;0.46;100.00;62045.59;6231780;23;20288;-81
2021/12/18 08:09:53;;;;;;;6.00;4.82;;;;;;;0.56;100.00;62063.38;6231240;23;20329;-80
2021/12/18 08:12:19;;;;;;;5.32;4.63;;;;;;;0.36;100.00;62030.88;6231517;23;20169;-80
2021/12/18 08:14:46;;;;;;;4.82;4.38;;;;;;;0.52;100.00;62057.28;6234615;23;20185;-79
2021/12/18 08:17:14;;;;;;;6.30;4.65;;;;;;;0.73;100.00;62078.28;6236386;23;20233;-81
2021/12/18 08:19:41;;;;;;;7.97;5.57;;;;;;;0.57;100.00;62059.91;6235472;23;20174;-80
2021/12/18 08:22:10;;;;;;;11.38;4.97;;;;;;;0.54;100.00;62059.34;6234922;23;20208;-80
2021/12/18 08:24:37;;;;;;;11.60;6.22;;;;;;;0.29;100.00;62028.69;6231994;23;20209;-80
2021/12/18 08:27:04;;;;;;;7.78;5.70;;;;;;;0.79;100.00;62082.47;6235069;23;20189;-78
2021/12/18 08:29:31;;;;;;;10.60;5.90;;;;;;;1.01;100.00;62104.50;6232810;23;20201;-80
2021/12/18 08:31:58;;;;;;;7.38;5.07;;;;;;;1.16;100.00;62119.91;6230060;23;20235;-82
2021/12/18 08:34:26;;;;;;;9.63;5.88;;;;;;;1.13;100.00;62119.84;6229000;23;20193;-80
2021/12/18 08:36:54;;;;;;;8.38;5.10;;;;;;;1.25;100.00;62129.13;6232314;23;20196;-79
2021/12/18 08:39:21;;;;;;;6.03;3.90;;;;;;;1.25;100.00;62129.13;6234568;23;20212;-80
2021/12/18 08:41:48;;;;;;;5.93;4.40;;;;;;;1.33;100.00;62134.81;6233195;23;20177;-80
2021/12/18 08:44:15;;;;;;;5.22;4.45;;;;;;;1.40;100.00;62144.53;6234263;23;20189;-80
2021/12/18 08:46:43;;;;;;;3.92;3.08;;;;;;;1.49;100.00;62150.72;6233875;23;20249;-81
2021/12/18 08:49:10;;;;;;;6.07;4.03;;;;;;;1.47;100.00;62151.22;6231671;23;20189;-81
2021/12/18 08:51:38;;;;;;;5.18;3.78;;;;;;;1.63;100.00;62168.13;6231486;23;20467;-80
2021/12/18 08:54:05;;;;;;;5.22;3.67;;;;;;;1.65;99.59;62167.16;6229878;23;20221;-81
2021/12/18 08:56:42;;;;;;;4.70;4.18;;;;;;;1.37;99.42;62138.41;6230145;23;20173;-81
2021/12/18 08:59:09;;;;;;;5.10;4.35;;;;;;;1.51;100.00;62155.81;6231765;23;20193;-81
2021/12/18 09:01:35;;;;;;;4.80;4.35;;;;;;;1.62;98.97;62162.09;6229883;23;20173;-81
2021/12/18 09:04:39;;;;;;;;;;;;;;;;;;;;;
2021/12/18 09:08:01;;;;;;;8.23;4.47;;;;;;;1.09;100.00;62113.22;6232568;23;20410;-81
2021/12/18 09:18:07;;;;;;;4.32;3.92;;;;;;;1.21;100.00;62117.50;6159373;23;20197;-80
2021/12/18 09:21:42;;;;;;;5.93;4.18;;;;;;;1.27;100.00;62133.69;6228585;23;20376;-80
2021/12/18 09:25:03;;;;;;;;;;;;;;;;;;;;;
2021/12/18 09:41:03;;;;;;;6.32;4.85;;;;;;;2.15;96.02;62218.50;6183255;23;20181;-80
2021/12/18 09:44:17;;;;;;;7.20;5.20;;;;;;;2.18;95.80;62224.06;6229025;23;20201;-82
2021/12/18 09:47:30;;;;;;;6.70;5.40;;;;;;;2.22;94.73;62228.19;6168725;23;20450;-80
2021/12/18 10:03:17;;;;;;;7.78;4.43;;;;;;;1.76;100.00;62178.97;6223513;23;20211;-80
2021/12/18 10:13:26;;;;;;;10.20;6.13;;;;;;;1.89;100.00;62194.31;6222211;23;20193;-80
2021/12/18 10:20:03;;;;;;;33.65;13.52;;;;;;;2.54;100.00;62263.56;6224296;23;20189;-80
2021/12/18 10:22:57;;;;;;;8.93;5.60;;;;;;;2.67;98.08;62271.38;6071874;23;20172;-82
2021/12/18 10:32:38;;;;;;;3.10;2.85;;;;;;;2.46;96.01;62249.81;6021214;23;20202;-83
2021/12/18 11:06:02;;;;;;;4.25;3.95;;;;;;;2.06;93.52;62212.28;5223886;22;20260;-82
2021/12/18 11:08:51;;;;;;;;;;;;;;;;;;;;;
2021/12/18 11:14:16;;;;;;;4.15;3.83;;;;;;;2.43;91.00;62249.75;5071302;28;20470;-83
2021/12/18 11:16:47;;;;;;;5.13;4.15;;;;;;;2.46;90.29;62249.81;5080849;28;20189;-81
2021/12/18 11:19:18;;;;;;;4.18;3.85;;;;;;;2.04;92.65;62209.69;5083774;28;20227;-82
2021/12/18 11:21:55;;;;;;;6.32;4.22;;;;;;;1.87;93.68;62195.28;5075187;28;20205;-83
2021/12/18 11:24:29;;;;;;;3.60;3.20;;;;;;;2.12;92.44;62220.94;5081779;28;20216;-81
2021/12/18 11:27:00;;;;;;;4.70;4.30;;;;;;;1.89;94.05;62194.81;5080292;28;20188;-82
2021/12/18 11:29:34;;;;;;;5.72;4.50;;;;;;;1.98;96.14;62204.06;5082627;28;20213;-83
2021/12/18 11:32:02;;;;;;;5.80;4.65;;;;;;;2.11;96.25;62219.91;5082631;28;20257;-82
2021/12/18 11:34:29;;;;;;;4.70;4.30;;;;;;;2.17;96.53;62223.56;5085889;28;20227;-82
2021/12/18 11:37:00;;;;;;;4.30;3.08;;;;;;;1.89;94.28;62192.31;5085576;28;20311;-80
2021/12/18 11:39:31;;;;;;;7.97;4.47;;;;;;;1.95;97.64;62197.97;5074507;28;20263;-81
2021/12/18 11:41:58;;;;;;;2.35;2.15;;;;;;;1.78;93.25;62188.53;5080968;28;20208;-80
2021/12/18 11:44:28;;;;;;;2.70;2.38;;;;;;;1.50;91.92;62156.78;5085737;28;20224;-81
2021/12/18 11:46:55;;;;;;;3.20;2.72;;;;;;;1.49;91.70;62153.25;5085745;28;20203;-81
2021/12/18 11:49:25;;;;;;;4.25;2.97;;;;;;;1.55;93.01;62164.94;5078004;28;20217;-81
2021/12/18 11:52:04;;;;;;;2.80;2.60;;;;;;;1.46;93.54;62153.19;5080683;28;20224;-80
2021/12/18 11:54:45;;;;;;;4.07;2.80;;;;;;;1.57;94.09;62161.97;5084406;28;20229;-78
2021/12/18 11:57:14;;;;;;;5.05;3.00;;;;;;;1.69;93.74;62176.78;5084707;28;20268;-80
2021/12/18 11:59:45;;;;;;;2.55;2.35;;;;;;;1.52;92.59;62156.34;5082628;28;20233;-80
2021/12/18 12:02:13;;;;;;;3.83;3.08;;;;;;;1.37;93.70;62143.94;5073600;28;20213;-78
2021/12/18 12:05:01;;;;;;;5.65;2.63;;;;;;;1.54;91.77;62155.88;5067724;28;20221;-78
2021/12/18 12:07:39;;;;;;;7.65;3.15;;;;;;;1.51;91.48;62158.31;5071514;28;20206;-79
2021/12/18 12:10:20;;;;;;;4.35;2.95;;;;;;;1.44;93.77;62145.59;5061786;28;20516;-79
2021/12/18 12:12:50;;;;;;;2.65;2.45;;;;;;;1.47;91.85;62149.19;5068002;28;20467;-79
2021/12/18 12:15:18;;;;;;;3.40;3.03;;;;;;;1.38;89.63;62139.97;5069788;28;20189;-79
2021/12/18 12:17:59;;;;;;;1.98;1.88;;;;;;;1.36;90.18;62137.41;5059729;28;20221;-79
2021/12/18 12:20:40;;;;;;;0.82;0.80;;;;;;;1.30;89.23;62133.75;5068511;28;20220;-78
2021/12/18 12:23:14;;;;;;;3.30;2.35;;;;;;;1.33;89.64;62134.34;5065219;28;20248;-79
2021/12/18 12:25:44;;;;;;;3.17;1.98;;;;;;;1.34;90.37;62135.34;5069609;28;20208;-79
2021/12/18 12:28:13;;;;;;;15.85;7.75;;;;;;;1.54;90.04;62155.88;5063965;28;20221;-79
2021/12/18 12:30:44;;;;;;;3.03;2.42;;;;;;;1.43;89.57;62144.59;5063679;28;20433;-79
2021/12/18 12:33:34;;;;;;;2.17;2.03;;;;;;;1.42;89.65;62144.06;5064977;28;20225;-81
2021/12/18 12:36:06;;;;;;;4.72;3.38;;;;;;;1.37;95.50;62141.44;5060985;28;20233;-78
2021/12/18 12:38:37;;;;;;;5.28;3.72;;;;;;;1.17;100.00;62121.44;5070332;28;20279;-81
2021/12/18 12:41:30;;;;;;;4.85;4.32;;;;;;;1.24;100.00;62128.13;5069849;28;20204;-80
2021/12/18 12:44:00;;;;;;;9.30;4.70;;;;;;;1.25;100.00;62129.13;5063921;28;20221;-79
2021/12/18 12:46:28;;;;;;;4.50;4.10;;;;;;;1.30;100.00;62133.75;5066823;28;20212;-79
2021/12/18 12:49:04;;;;;;;7.55;4.57;;;;;;;1.40;100.00;62146.53;5067366;28;20260;-79
2021/12/18 12:52:03;;;;;;;6.20;4.53;;;;;;;1.39;100.00;62140.47;5068159;28;20237;-81
2021/12/18 12:55:02;;;;;;;5.45;4.13;;;;;;;1.37;100.00;62141.44;5054639;28;20290;-79
2021/12/18 12:57:55;;;;;;;4.70;3.70;;;;;;;1.33;100.00;62137.34;5062671;28;20197;-78
2021/12/18 13:00:47;;;;;;;3.55;3.25;;;;;;;1.27;100.00;62136.22;5053540;28;20533;-79
2021/12/18 13:03:27;;;;;;;7.03;4.65;;;;;;;1.22;100.00;62125.53;5057352;28;20298;-80
2021/12/18 13:06:04;;;;;;;4.43;3.67;;;;;;;1.21;100.00;62124.53;5068784;28;20384;-79
2021/12/18 13:08:33;;;;;;;5.75;3.92;;;;;;;1.15;100.00;62118.88;5067790;28;20267;-80
2021/12/18 13:11:05;;;;;;;6.90;3.88;;;;;;;0.97;100.00;62100.91;5067370;28;20513;-79
2021/12/18 13:13:34;;;;;;;5.63;4.63;;;;;;;0.74;100.00;62077.31;5064841;28;20213;-79
2021/12/18 13:16:04;;;;;;;6.82;4.90;;;;;;;0.95;100.00;62098.34;5065680;28;20205;-79
2021/12/18 13:18:34;;;;;;;3.83;3.30;;;;;;;0.87;100.00;62092.66;5064244;28;20419;-79
2021/12/18 13:21:05;;;;;;;3.10;2.70;;;;;;;0.77;100.00;62075.41;5076574;28;20204;-79
2021/12/18 13:23:48;;;;;;;2.78;2.58;;;;;;;0.80;100.00;62085.47;5068121;28;20297;-79
2021/12/18 13:26:21;;;;;;;4.82;3.55;;;;;;;0.79;100.00;62079.97;5054841;28;20205;-79
2021/12/18 13:28:53;;;;;;;4.30;3.20;;;;;;;0.69;100.00;62072.19;5055075;28;20230;-80
2021/12/18 13:31:22;;;;;;;3.58;3.33;;;;;;;0.68;100.00;62068.16;5059012;28;20225;-80
2021/12/18 13:33:59;;;;;;;4.38;2.85;;;;;;;0.60;100.00;62063.00;5055939;28;20224;-79
2021/12/18 13:36:37;;;;;;;4.93;2.97;;;;;;;0.70;100.00;62072.72;5066259;28;20239;-80
2021/12/18 13:39:08;;;;;;;3.10;2.75;;;;;;;0.73;100.00;62078.28;5064660;28;20232;-79
2021/12/18 13:41:36;;;;;;;4.57;3.20;;;;;;;0.86;100.00;62086.63;5065199;28;20417;-80
2021/12/18 13:44:04;;;;;;;3.15;2.92;;;;;;;0.78;100.00;62078.41;5067656;28;20228;-80
2021/12/18 13:46:32;;;;;;;3.83;2.92;;;;;;;0.82;100.00;62080.00;5064479;28;20474;-80
2021/12/18 13:49:00;;;;;;;4.40;3.47;;;;;;;0.73;100.00;62076.31;5064061;28;20426;-78